createdAt,value
2023-03-17T00:01:19.908Z,100543.59
2023-03-17T00:03:49.839Z,100547.13
2023-03-17T00:06:23.726Z,100540.22
2023-03-17T00:08:52.697Z,100550.28
2023-03-17T00:11:22.013Z,100547.84
2023-03-17T00:13:49.784Z,100551.25
2023-03-17T00:16:19.988Z,100538.91
2023-03-17T00:18:48.279Z,100543.09
2023-03-17T00:21:19.773Z,100538.75
2023-03-17T00:23:51.562Z,100543.47
2023-03-17T00:26:20.598Z,100541.47
2023-03-17T00:28:48.401Z,100555.44
2023-03-17T00:31:17.687Z,100551.25
2023-03-17T00:33:46.433Z,100544.38
2023-03-17T00:36:17.897Z,100545.88
2023-03-17T00:38:45.964Z,100546.03
2023-03-17T00:41:13.979Z,100547.06
2023-03-17T00:43:43.283Z,100549.09
2023-03-17T00:46:14.581Z,100547.06
2023-03-17T00:48:43.424Z,100543.03
2023-03-17T00:51:11.976Z,100546.75
2023-03-17T00:53:40.527Z,100536.66
2023-03-17T00:56:14.322Z,100527.28
2023-03-17T00:58:43.864Z,100531.78
2023-03-17T01:01:12.301Z,100537.22
2023-03-17T01:03:40.475Z,100530.66
2023-03-17T01:06:11.246Z,100519.09
2023-03-17T01:08:40.608Z,100527.03
2023-03-17T01:11:14.603Z,100521.63
2023-03-17T01:13:43.571Z,100526.84
2023-03-17T01:16:12.222Z,100519.41
2023-03-17T01:18:39.965Z,100504.13
2023-03-17T01:21:09.432Z,100516.53
2023-03-17T01:23:37.898Z,100527.97
2023-03-17T01:26:06.530Z,100513.13
2023-03-17T01:28:34.283Z,100522.91
2023-03-17T01:31:03.387Z,100534.47
2023-03-17T01:33:31.030Z,100531.09
2023-03-17T01:35:58.653Z,100544.06
2023-03-17T01:38:26.302Z,100538.84
2023-03-17T01:40:56.663Z,100521.34
2023-03-17T01:43:27.549Z,100520.81
2023-03-17T01:46:29.581Z,100517.63
2023-03-17T01:49:10.009Z,100502.38
2023-03-17T01:51:44.074Z,100500.22
2023-03-17T01:54:15.187Z,100489.41
2023-03-17T01:56:46.310Z,100484.84
2023-03-17T01:59:20.121Z,100483.03
2023-03-17T02:01:52.425Z,100480.53
2023-03-17T02:04:21.767Z,100474.66
2023-03-17T02:06:57.959Z,100475.16
2023-03-17T02:09:28.017Z,100478.53
2023-03-17T02:11:57.173Z,100480.72
2023-03-17T02:14:25.454Z,100488.78
2023-03-17T02:16:54.588Z,100483.91
2023-03-17T02:19:22.315Z,100485.59
2023-03-17T02:21:53.701Z,100489.75
2023-03-17T02:24:27.455Z,100492.59
2023-03-17T02:26:58.222Z,100497.41
2023-03-17T02:29:25.847Z,100500.41
2023-03-17T02:31:53.709Z,100493.81
2023-03-17T02:34:21.735Z,100504.59
2023-03-17T02:36:49.418Z,100498.50
2023-03-17T02:39:18.557Z,100511.22
2023-03-17T02:41:46.224Z,100504.22
2023-03-17T02:44:13.930Z,100504.41
2023-03-17T02:46:41.663Z,100494.84
2023-03-17T02:49:10.000Z,100501.59
2023-03-17T02:51:37.744Z,100493.59
2023-03-17T02:54:05.585Z,100492.41
2023-03-17T02:56:34.681Z,100488.72
2023-03-17T02:59:02.306Z,100484.34
2023-03-17T03:01:30.920Z,100491.25
2023-03-17T03:03:58.843Z,100495.50
2023-03-17T03:06:26.749Z,100482.81
2023-03-17T03:08:54.538Z,100466.19
2023-03-17T03:11:27.853Z,100485.59
2023-03-17T03:13:56.928Z,100485.91
2023-03-17T03:16:25.150Z,100482.72
2023-03-17T03:18:52.920Z,100488.09
2023-03-17T03:21:20.557Z,100493.09
2023-03-17T03:23:48.285Z,100494.22
2023-03-17T03:26:16.270Z,100496.59
2023-03-17T03:28:43.919Z,100498.78
2023-03-17T03:31:13.772Z,100497.28
2023-03-17T03:33:41.694Z,100497.97
2023-03-17T03:36:10.125Z,100483.28
2023-03-17T03:38:39.300Z,100490.22
2023-03-17T03:41:07.358Z,100486.91
2023-03-17T03:43:35.267Z,100479.84
2023-03-17T03:46:03.209Z,100484.91
2023-03-17T03:48:32.333Z,100480.03
2023-03-17T03:51:01.251Z,100473.00
2023-03-17T03:53:29.932Z,100473.84
2023-03-17T03:55:57.565Z,100463.25
2023-03-17T03:58:25.338Z,100461.28
2023-03-17T04:00:53.038Z,100449.19
2023-03-17T04:03:20.682Z,100448.38
2023-03-17T04:05:51.697Z,100431.03
2023-03-17T04:08:19.360Z,100422.41
2023-03-17T04:10:47.516Z,100426.13
2023-03-17T04:13:15.360Z,100428.50
2023-03-17T04:15:43.098Z,100437.63
2023-03-17T04:18:11.578Z,100430.56
2023-03-17T04:20:39.428Z,100426.56
2023-03-17T04:23:08.608Z,100428.69
2023-03-17T04:25:36.735Z,100417.63
2023-03-17T04:28:04.730Z,100421.47
2023-03-17T04:30:32.713Z,100428.03
2023-03-17T04:33:01.018Z,100427.19
2023-03-17T04:35:28.699Z,100414.28
2023-03-17T04:37:56.544Z,100407.41
2023-03-17T04:40:25.582Z,100427.94
2023-03-17T04:42:53.242Z,100416.88
2023-03-17T04:45:21.026Z,100411.78
2023-03-17T04:47:48.674Z,100420.31
2023-03-17T04:50:17.876Z,100430.91
2023-03-17T04:52:45.550Z,100415.78
2023-03-17T04:55:13.181Z,100416.44
2023-03-17T04:57:42.103Z,100417.41
2023-03-17T05:00:11.759Z,100426.13
2023-03-17T05:02:39.887Z,100417.94
2023-03-17T05:05:08.509Z,100409.03
2023-03-17T05:07:36.402Z,100415.59
2023-03-17T05:10:04.130Z,100414.41
2023-03-17T05:12:31.992Z,100401.31
2023-03-17T05:15:00.939Z,100410.94
2023-03-17T05:17:28.546Z,100415.50
2023-03-17T05:19:56.370Z,100414.16
2023-03-17T05:22:24.053Z,100409.44
2023-03-17T05:24:51.778Z,100414.28
2023-03-17T05:27:19.375Z,100414.78
2023-03-17T05:29:47.483Z,100420.56
2023-03-17T05:32:18.305Z,100412.50
2023-03-17T05:34:46.268Z,100403.75
2023-03-17T05:37:15.554Z,100407.59
2023-03-17T05:39:43.640Z,100390.91
2023-03-17T05:42:11.463Z,100392.34
2023-03-17T05:44:39.607Z,100396.22
2023-03-17T05:47:08.363Z,100399.47
2023-03-17T05:49:37.434Z,100395.09
2023-03-17T05:52:05.100Z,100399.47
2023-03-17T05:54:32.856Z,100391.56
2023-03-17T05:57:01.015Z,100378.72
2023-03-17T05:59:28.996Z,100384.63
2023-03-17T06:01:57.161Z,100393.25
2023-03-17T06:04:25.277Z,100377.94
2023-03-17T06:06:54.220Z,100381.13
2023-03-17T06:09:21.939Z,100381.94
2023-03-17T06:11:49.565Z,100383.25
2023-03-17T06:14:17.342Z,100394.56
2023-03-17T06:16:45.062Z,100393.41
2023-03-17T06:19:13.025Z,100398.97
2023-03-17T06:21:41.142Z,100402.34
2023-03-17T06:24:10.535Z,100405.03
2023-03-17T06:26:38.257Z,100410.22
2023-03-17T06:29:08.993Z,100406.03
2023-03-17T06:31:37.151Z,100399.66
2023-03-17T06:34:05.638Z,100395.22
2023-03-17T06:36:33.763Z,100386.50
2023-03-17T06:39:02.028Z,100386.06
2023-03-17T06:41:31.333Z,100390.06
2023-03-17T06:43:59.184Z,100388.03
2023-03-17T06:46:27.108Z,100388.81
2023-03-17T06:48:54.915Z,100404.41
2023-03-17T06:51:22.553Z,100403.38
2023-03-17T06:53:50.477Z,100410.06
2023-03-17T06:56:29.577Z,100416.75
2023-03-17T06:58:59.361Z,100416.38
2023-03-17T07:01:27.705Z,100411.97
2023-03-17T07:03:55.461Z,100404.00
2023-03-17T07:06:24.227Z,100404.38
2023-03-17T07:08:52.244Z,100401.59
2023-03-17T07:11:20.360Z,100405.88
2023-03-17T07:13:48.034Z,100392.69
2023-03-17T07:16:19.507Z,100389.78
2023-03-17T07:18:47.454Z,100398.16
2023-03-17T07:21:15.699Z,100395.19
2023-03-17T07:23:43.348Z,100382.25
2023-03-17T07:26:11.146Z,100387.56
2023-03-17T07:28:39.009Z,100381.38
2023-03-17T07:31:08.780Z,100384.06
2023-03-17T07:33:38.206Z,100379.25
2023-03-17T07:36:07.281Z,100382.91
2023-03-17T07:38:36.101Z,100379.34
2023-03-17T07:41:04.646Z,100381.88
2023-03-17T07:43:32.295Z,100384.00
2023-03-17T07:46:00.143Z,100378.94
2023-03-17T07:48:28.177Z,100380.13
2023-03-17T07:50:57.132Z,100377.75
2023-03-17T07:53:25.250Z,100384.06
2023-03-17T07:55:52.835Z,100379.09
2023-03-17T07:58:21.632Z,100375.84
2023-03-17T08:00:49.847Z,100371.50
2023-03-17T08:03:17.643Z,100364.69
2023-03-17T08:05:47.861Z,100368.09
2023-03-17T08:08:17.123Z,100359.09
2023-03-17T08:10:47.131Z,100357.28
2023-03-17T08:13:15.113Z,100357.78
2023-03-17T08:15:43.459Z,100367.81
2023-03-17T08:18:11.467Z,100366.06
2023-03-17T08:20:39.133Z,100370.06
2023-03-17T08:23:07.391Z,100371.38
2023-03-17T08:25:36.919Z,100378.50
2023-03-17T08:28:04.672Z,100371.00
2023-03-17T08:30:33.943Z,100372.63
2023-03-17T08:33:02.572Z,100386.56
2023-03-17T08:35:31.032Z,100383.44
2023-03-17T08:37:59.058Z,100376.25
2023-03-17T08:40:26.853Z,100370.06
2023-03-17T08:42:55.915Z,100382.34
2023-03-17T08:45:23.600Z,100385.88
2023-03-17T08:47:51.308Z,100378.59
2023-03-17T08:50:21.870Z,100378.03
2023-03-17T08:52:51.439Z,100371.56
2023-03-17T08:55:19.962Z,100366.19
2023-03-17T08:57:48.741Z,100363.03
2023-03-17T09:00:20.483Z,100353.50
2023-03-17T09:02:49.353Z,100337.28
2023-03-17T09:05:18.412Z,100339.22
2023-03-17T09:07:46.070Z,100338.81
2023-03-17T09:10:14.928Z,100336.31
2023-03-17T09:12:42.948Z,100329.66
2023-03-17T09:15:12.923Z,100339.69
2023-03-17T09:17:43.703Z,100338.22
2023-03-17T09:20:12.410Z,100324.25
2023-03-17T09:22:40.000Z,100324.06
2023-03-17T09:25:08.207Z,100323.44
2023-03-17T09:27:36.559Z,100326.16
2023-03-17T09:30:04.496Z,100324.25
2023-03-17T09:32:32.304Z,100320.13
2023-03-17T09:35:01.880Z,100320.31
2023-03-17T09:37:29.473Z,100327.78
2023-03-17T09:39:57.899Z,100337.16
2023-03-17T09:42:43.674Z,100332.34
2023-03-17T09:45:22.412Z,100344.66
2023-03-17T09:47:59.248Z,100347.56
2023-03-17T09:50:40.250Z,100344.41
2023-03-17T09:53:16.727Z,100349.59
2023-03-17T09:55:49.109Z,100359.00
2023-03-17T09:58:19.770Z,100353.72
2023-03-17T10:00:47.443Z,100349.97
2023-03-17T10:03:16.036Z,100358.16
2023-03-17T10:05:45.749Z,100356.69
2023-03-17T10:08:30.165Z,100360.03
2023-03-17T10:11:03.998Z,100352.91
2023-03-17T10:13:45.471Z,100342.88
2023-03-17T10:16:15.285Z,100344.16
2023-03-17T10:18:47.800Z,100339.94
2023-03-17T10:21:21.545Z,100332.84
2023-03-17T10:23:49.487Z,100331.38
2023-03-17T10:26:28.888Z,100343.28
2023-03-17T10:28:57.452Z,100340.75
2023-03-17T10:31:30.790Z,100332.59
2023-03-17T10:34:05.282Z,100339.44
2023-03-17T10:36:38.769Z,100344.88
2023-03-17T10:39:08.520Z,100341.47
2023-03-17T10:41:40.950Z,100336.22
2023-03-17T10:44:11.058Z,100342.25
2023-03-17T10:46:40.133Z,100338.06
2023-03-17T10:49:10.960Z,100332.81
2023-03-17T10:51:40.753Z,100343.44
2023-03-17T10:54:11.848Z,100335.97
2023-03-17T10:56:42.828Z,100330.50
2023-03-17T10:59:19.375Z,100324.16
2023-03-17T11:01:56.945Z,100327.06
2023-03-17T11:04:31.632Z,100334.69
2023-03-17T11:07:09.941Z,100332.22
2023-03-17T11:09:38.829Z,100341.97
2023-03-17T11:12:08.780Z,100328.34
2023-03-17T11:14:37.845Z,100331.47
2023-03-17T11:17:17.059Z,100332.28
2023-03-17T11:19:53.366Z,100325.56
2023-03-17T11:22:31.805Z,100320.69
2023-03-17T11:25:11.431Z,100316.25
2023-03-17T11:27:47.969Z,100317.00
2023-03-17T11:30:18.586Z,100320.94
2023-03-17T11:32:56.790Z,100305.66
2023-03-17T11:35:53.033Z,100302.47
2023-03-17T11:38:28.176Z,100301.66
2023-03-17T11:41:13.278Z,100297.03
2023-03-17T11:43:54.271Z,100300.06
2023-03-17T11:46:27.834Z,100289.16
2023-03-17T11:49:03.500Z,100282.59
2023-03-17T11:51:37.466Z,100276.84
2023-03-17T11:54:13.869Z,100281.28
2023-03-17T11:56:46.752Z,100286.66
2023-03-17T11:59:21.682Z,100284.06
2023-03-17T12:01:58.136Z,100276.66
2023-03-17T12:04:34.228Z,100277.44
2023-03-17T12:07:09.778Z,100284.00
2023-03-17T12:09:45.806Z,100280.56
2023-03-17T12:12:20.822Z,100282.47
2023-03-17T12:14:52.348Z,100287.69
2023-03-17T12:17:26.840Z,100286.16
2023-03-17T12:20:06.682Z,100284.38
2023-03-17T12:22:41.365Z,100275.91
2023-03-17T12:25:18.925Z,100264.06
2023-03-17T12:27:58.852Z,100256.97
2023-03-17T12:30:32.371Z,100249.53
2023-03-17T12:33:12.351Z,100251.81
2023-03-17T12:35:40.617Z,100252.66
2023-03-17T12:38:13.630Z,100249.19
2023-03-17T12:41:10.921Z,100249.44
2023-03-17T12:43:47.799Z,100248.97
2023-03-17T12:46:44.774Z,100240.78
2023-03-17T12:49:31.404Z,100247.09
2023-03-17T12:52:12.376Z,100241.50
2023-03-17T12:54:47.805Z,100245.53
2023-03-17T12:57:20.308Z,100243.50
2023-03-17T12:59:50.495Z,100240.91
2023-03-17T13:02:32.225Z,100248.16
2023-03-17T13:05:01.974Z,100256.44
2023-03-17T13:07:36.760Z,100237.94
2023-03-17T13:10:39.898Z,100237.47
2023-03-17T13:13:13.035Z,100230.34
2023-03-17T13:15:58.787Z,100223.59
2023-03-17T13:18:51.174Z,100220.63
2023-03-17T13:21:24.917Z,100226.44
2023-03-17T13:24:24.546Z,100228.66
2023-03-17T13:27:01.602Z,100220.84
2023-03-17T13:29:43.678Z,100231.38
2023-03-17T13:32:32.663Z,100222.69
2023-03-17T13:35:26.478Z,100215.78
2023-03-17T13:38:10.601Z,100217.09
2023-03-17T13:40:52.451Z,100227.53
2023-03-17T13:43:46.693Z,100226.00
2023-03-17T13:46:27.467Z,100213.16
2023-03-17T13:48:57.419Z,100208.56
2023-03-17T13:51:28.118Z,100209.38
2023-03-17T13:53:58.093Z,100207.97
2023-03-17T13:56:30.391Z,100209.38
2023-03-17T13:59:13.585Z,100196.34
2023-03-17T14:01:48.229Z,100193.91
2023-03-17T14:04:22.749Z,100191.19
2023-03-17T14:06:54.045Z,100196.19
2023-03-17T14:09:32.064Z,100188.22
2023-03-17T14:12:04.146Z,100187.41
2023-03-17T14:14:39.188Z,100182.63
2023-03-17T14:17:14.833Z,100176.69
2023-03-17T14:19:43.348Z,100178.91
2023-03-17T14:22:23.267Z,100182.50
2023-03-17T14:24:54.961Z,100177.03
2023-03-17T14:27:25.357Z,100189.56
2023-03-17T14:29:53.182Z,100187.94
2023-03-17T14:32:26.411Z,100186.84
2023-03-17T14:34:59.263Z,100188.53
2023-03-17T14:37:27.791Z,100184.63
2023-03-17T14:39:58.833Z,100176.00
2023-03-17T14:42:28.459Z,100183.25
2023-03-17T14:45:04.260Z,100173.66
2023-03-17T14:47:39.513Z,100174.16
2023-03-17T14:50:19.753Z,100172.75
2023-03-17T14:52:47.632Z,100162.06
2023-03-17T14:55:16.987Z,100166.13
2023-03-17T14:57:50.906Z,100166.13
2023-03-17T15:00:34.840Z,100157.09
2023-03-17T15:03:05.774Z,100162.53
2023-03-17T15:05:41.835Z,100151.31
2023-03-17T15:08:29.368Z,100161.38
2023-03-17T15:11:01.957Z,100165.41
2023-03-17T15:13:34.135Z,100153.94
2023-03-17T15:16:07.327Z,100146.22
2023-03-17T15:18:36.408Z,100148.94
2023-03-17T15:21:04.053Z,100154.09
2023-03-17T15:23:40.618Z,100154.56
2023-03-17T15:26:22.688Z,100157.53
2023-03-17T15:28:50.612Z,100155.84
2023-03-17T15:31:23.365Z,100158.84
2023-03-17T15:33:53.111Z,100156.34
2023-03-17T15:36:31.947Z,100159.31
2023-03-17T15:39:00.716Z,100156.50
2023-03-17T15:41:28.671Z,100159.22
2023-03-17T15:43:56.742Z,100152.59
2023-03-17T15:46:30.640Z,100145.22
2023-03-17T15:49:00.449Z,100146.31
2023-03-17T15:51:28.437Z,100145.72
2023-03-17T15:53:56.081Z,100145.72
2023-03-17T15:56:23.878Z,100143.25
2023-03-17T15:58:52.621Z,100141.59
2023-03-17T16:01:22.497Z,100136.38
2023-03-17T16:03:50.642Z,100142.06
2023-03-17T16:06:23.327Z,100143.38
2023-03-17T16:08:51.757Z,100148.22
2023-03-17T16:11:30.403Z,100138.41
2023-03-17T16:14:00.667Z,100136.75
2023-03-17T16:16:37.504Z,100138.88
2023-03-17T16:19:06.461Z,100123.03
2023-03-17T16:21:36.021Z,100122.41
2023-03-17T16:24:09.679Z,100127.06
2023-03-17T16:26:37.611Z,100121.59
2023-03-17T16:29:11.805Z,100122.66
2023-03-17T16:31:41.607Z,100127.97
2023-03-17T16:34:17.253Z,100127.16
2023-03-17T16:36:50.508Z,100124.44
2023-03-17T16:39:19.868Z,100120.31
2023-03-17T16:41:48.733Z,100121.34
2023-03-17T16:44:20.101Z,100131.66
2023-03-17T16:46:48.981Z,100136.53
2023-03-17T16:49:21.131Z,100139.72
2023-03-17T16:51:50.796Z,100133.09
2023-03-17T16:54:19.131Z,100137.38
2023-03-17T16:56:48.882Z,100137.88
2023-03-17T16:59:20.769Z,100135.50
2023-03-17T17:01:48.929Z,100132.03
2023-03-17T17:04:16.915Z,100139.16
2023-03-17T17:06:44.866Z,100137.00
2023-03-17T17:09:13.946Z,100129.66
2023-03-17T17:11:41.691Z,100136.78
2023-03-17T17:14:09.875Z,100137.84
2023-03-17T17:16:40.639Z,100144.13
2023-03-17T17:19:16.381Z,100146.84
2023-03-17T17:21:45.160Z,100146.25
2023-03-17T17:24:15.115Z,100154.91
2023-03-17T17:26:42.959Z,100158.47
2023-03-17T17:29:10.652Z,100158.81
2023-03-17T17:31:38.394Z,100165.19
2023-03-17T17:34:06.180Z,100170.53
2023-03-17T17:36:34.335Z,100175.84
2023-03-17T17:39:04.341Z,100188.91
2023-03-17T17:41:37.579Z,100186.88
2023-03-17T17:44:06.463Z,100202.00
2023-03-17T17:46:34.471Z,100196.81
2023-03-17T17:49:02.259Z,100198.91
2023-03-17T17:51:31.384Z,100209.69
2023-03-17T17:53:59.537Z,100199.78
2023-03-17T17:56:28.103Z,100212.91
2023-03-17T17:58:57.399Z,100213.03
2023-03-17T18:01:25.247Z,100214.09
2023-03-17T18:03:52.969Z,100216.59
2023-03-17T18:06:20.676Z,100216.34
2023-03-17T18:08:50.213Z,100207.59
2023-03-17T18:11:19.364Z,100205.31
2023-03-17T18:13:47.543Z,100193.38
2023-03-17T18:16:18.547Z,100196.94
2023-03-17T18:18:47.072Z,100179.19
2023-03-17T18:21:15.929Z,100178.56
2023-03-17T18:23:49.135Z,100182.97
2023-03-17T18:26:18.180Z,100181.91
2023-03-17T18:28:46.020Z,100175.97
2023-03-17T18:31:19.233Z,100157.50
2023-03-17T18:33:49.203Z,100159.28
2023-03-17T18:36:18.141Z,100147.56
2023-03-17T18:38:46.936Z,100147.31
2023-03-17T18:41:16.069Z,100181.38
2023-03-17T18:43:44.806Z,100184.34
2023-03-17T18:46:12.963Z,100170.97
2023-03-17T18:48:42.063Z,100172.84
2023-03-17T18:51:09.774Z,100169.06
2023-03-17T18:53:39.241Z,100167.41
2023-03-17T18:56:07.691Z,100177.09
2023-03-17T18:58:36.188Z,100187.41
2023-03-17T19:01:04.477Z,100190.13
2023-03-17T19:03:33.377Z,100183.03
2023-03-17T19:06:10.635Z,100182.78
2023-03-17T19:08:38.404Z,100181.13
2023-03-17T19:11:07.620Z,100183.69
2023-03-17T19:13:35.835Z,100179.56
2023-03-17T19:16:03.694Z,100167.03
2023-03-17T19:18:31.884Z,100157.22
2023-03-17T19:20:59.555Z,100153.63
2023-03-17T19:23:29.263Z,100151.16
2023-03-17T19:25:56.823Z,100140.88
2023-03-17T19:28:24.551Z,100140.88
2023-03-17T19:30:52.268Z,100145.25
2023-03-17T19:33:20.011Z,100134.38
2023-03-17T19:35:53.995Z,100134.81
2023-03-17T19:38:21.850Z,100134.50
2023-03-17T19:40:50.744Z,100129.50
2023-03-17T19:43:36.857Z,100123.72
2023-03-17T19:46:06.315Z,100128.78
2023-03-17T19:48:34.554Z,100124.63
2023-03-17T19:51:03.365Z,100144.97
2023-03-17T19:53:31.378Z,100141.44
2023-03-17T19:56:00.376Z,100146.03
2023-03-17T19:58:28.172Z,100150.63
2023-03-17T20:00:56.212Z,100165.91
2023-03-17T20:03:26.181Z,100152.31
2023-03-17T20:05:54.225Z,100145.66
2023-03-17T20:08:22.608Z,100153.47
2023-03-17T20:10:53.883Z,100152.63
2023-03-17T20:13:23.308Z,100151.56
2023-03-17T20:15:51.704Z,100165.16
2023-03-17T20:18:20.195Z,100169.78
2023-03-17T20:20:52.953Z,100181.94
2023-03-17T20:23:22.756Z,100188.53
2023-03-17T20:25:52.797Z,100199.03
2023-03-17T20:28:24.145Z,100173.34
2023-03-17T20:30:52.729Z,100172.69
2023-03-17T20:33:21.538Z,100174.09
2023-03-17T20:35:50.184Z,100171.69
2023-03-17T20:38:18.618Z,100174.41
2023-03-17T20:40:47.068Z,100184.69
2023-03-17T20:43:16.145Z,100189.38
2023-03-17T20:45:46.224Z,100193.09
2023-03-17T20:48:14.609Z,100204.78
2023-03-17T20:50:51.168Z,100204.78
2023-03-17T20:53:19.278Z,100213.19
2023-03-17T20:55:48.095Z,100223.34
2023-03-17T20:58:16.081Z,100227.50
2023-03-17T21:00:45.587Z,100216.19
2023-03-17T21:03:13.273Z,100199.88
2023-03-17T21:05:42.281Z,100197.38
2023-03-17T21:08:10.568Z,100189.81
2023-03-17T21:10:39.264Z,100189.69
2023-03-17T21:13:07.377Z,100188.47
2023-03-17T21:15:36.002Z,100192.09
2023-03-17T21:18:05.808Z,100177.88
2023-03-17T21:20:33.940Z,100160.81
2023-03-17T21:23:04.476Z,100156.75
2023-03-17T21:25:35.995Z,100171.31
2023-03-17T21:28:04.903Z,100179.13
2023-03-17T21:30:34.111Z,100187.13
2023-03-17T21:33:02.109Z,100194.66
2023-03-17T21:35:34.476Z,100185.44
2023-03-17T21:38:02.750Z,100181.84
2023-03-17T21:40:31.583Z,100174.44
2023-03-17T21:43:00.624Z,100175.03
2023-03-17T21:45:29.221Z,100175.94
2023-03-17T21:47:56.967Z,100180.78
2023-03-17T21:50:24.732Z,100181.69
2023-03-17T21:52:54.189Z,100179.19
2023-03-17T21:55:21.859Z,100196.78
2023-03-17T21:57:49.524Z,100194.06
2023-03-17T22:00:18.002Z,100189.84
2023-03-17T22:02:45.783Z,100189.59
2023-03-17T22:05:18.336Z,100182.16
2023-03-17T22:07:46.573Z,100178.81
2023-03-17T22:10:15.571Z,100190.72
2023-03-17T22:12:43.559Z,100190.72
2023-03-17T22:15:12.120Z,100189.06
2023-03-17T22:17:40.160Z,100200.53
2023-03-17T22:20:08.973Z,100200.09
2023-03-17T22:22:36.784Z,100201.50
2023-03-17T22:25:06.182Z,100207.81
2023-03-17T22:27:35.294Z,100208.84
2023-03-17T22:30:03.029Z,100201.28
2023-03-17T22:32:30.697Z,100200.84
2023-03-17T22:34:59.253Z,100201.66
2023-03-17T22:37:30.084Z,100202.72
2023-03-17T22:40:02.455Z,100213.16
2023-03-17T22:42:30.991Z,100208.53
2023-03-17T22:44:59.970Z,100215.41
2023-03-17T22:47:27.628Z,100210.81
2023-03-17T22:49:55.229Z,100218.81
2023-03-17T22:52:23.454Z,100216.09
2023-03-17T22:54:51.334Z,100221.53
2023-03-17T22:57:19.441Z,100224.47
2023-03-17T22:59:47.373Z,100221.22
2023-03-17T23:02:18.504Z,100217.72
2023-03-17T23:04:46.406Z,100219.41
2023-03-17T23:07:14.595Z,100213.81
2023-03-17T23:09:42.643Z,100221.94
2023-03-17T23:12:10.754Z,100224.09
2023-03-17T23:14:39.273Z,100214.44
2023-03-17T23:17:07.414Z,100221.72
2023-03-17T23:19:36.507Z,100205.22
2023-03-17T23:22:04.122Z,100205.81
2023-03-17T23:24:31.697Z,100212.91
2023-03-17T23:26:59.361Z,100210.78
2023-03-17T23:29:27.667Z,100205.16
2023-03-17T23:31:55.487Z,100207.03
2023-03-17T23:34:23.203Z,100202.63
2023-03-17T23:36:52.343Z,100217.31
2023-03-17T23:39:20.317Z,100209.16
2023-03-17T23:41:48.004Z,100211.88
2023-03-17T23:44:16.268Z,100218.75
2023-03-17T23:46:44.934Z,100215.16
2023-03-17T23:49:13.081Z,100218.13
2023-03-17T23:51:40.780Z,100218.75
2023-03-17T23:54:10.146Z,100209.31
2023-03-17T23:56:37.915Z,100221.47
2023-03-17T23:59:07.493Z,100221.88
